SWR36C LSZH-LEMG
Flight info
| Callsign | SWR36C |
|---|---|
| Flight time | N/A |
| Altitude | 33000 |
| Route | VEBIT T50 ROTOS Z669 ULMES DCT VADAR DCT NINTU/N0444F370 DCT MEBAK DCT REPSI DCT LERGA DCT MINSO DCT NARAK DCT AGN DCT MAQAB DCT TIVLI DCT ELSAP DCT ZAR DCT EXEMU DCT PISUS DCT EDIMU DCT ADUXO DCT NUSGO DCT OBIBO DCT NASOS DCT ANZAN DCT BLN |
| Aircraft | A321/M-SDE3FGHIRWY/LB1 |
Departure
| Time | 2026-05-01 15:27 |
|---|---|
| Airport | Zürich Airport (LSZH) |
Arrival
| Time | N/A |
|---|---|
| Airport | Málaga-Costa del Sol Airport (LEMG) |
| Time | Latitude | Longitude | Altitude | Speed | Heading |
|---|---|---|---|---|---|
| 2026-05-01 15:02 | 47.45349 | 8.55647 | 1434 ft | 0 kts | 6° |
| 2026-05-01 15:12 | 47.45342 | 8.55646 | 1413 ft | 2 kts | 5° |
| 2026-05-01 15:12 | 47.45315 | 8.55643 | 1409 ft | 2 kts | 1° |
| 2026-05-01 15:12 | 47.45298 | 8.55643 | 1411 ft | 2 kts | 356° |
| 2026-05-01 15:13 | 47.45274 | 8.55653 | 1407 ft | 2 kts | 308° |
| 2026-05-01 15:14 | 47.45269 | 8.55670 | 1409 ft | 0 kts | 275° |
| 2026-05-01 15:15 | 47.45263 | 8.55756 | 1407 ft | 0 kts | 275° |
| 2026-05-01 15:18 | 47.45265 | 8.55731 | 1407 ft | 7 kts | 275° |
| 2026-05-01 15:18 | 47.45269 | 8.55665 | 1410 ft | 6 kts | 276° |
| 2026-05-01 15:19 | 47.45310 | 8.55553 | 1406 ft | 5 kts | 336° |
| 2026-05-01 15:19 | 47.45376 | 8.55509 | 1410 ft | 7 kts | 335° |
| 2026-05-01 15:19 | 47.45436 | 8.55468 | 1404 ft | 12 kts | 335° |
| 2026-05-01 15:20 | 47.45604 | 8.55352 | 1402 ft | 12 kts | 335° |
| 2026-05-01 15:20 | 47.45662 | 8.55354 | 1404 ft | 8 kts | 41° |
| 2026-05-01 15:20 | 47.45670 | 8.55414 | 1406 ft | 5 kts | 96° |
| 2026-05-01 15:21 | 47.45668 | 8.55449 | 1401 ft | 2 kts | 96° |
| 2026-05-01 15:21 | 47.45665 | 8.55490 | 1402 ft | 5 kts | 96° |
| 2026-05-01 15:21 | 47.45662 | 8.55530 | 1403 ft | 3 kts | 96° |
| 2026-05-01 15:21 | 47.45658 | 8.55582 | 1403 ft | 8 kts | 96° |
| 2026-05-01 15:22 | 47.45638 | 8.55866 | 1409 ft | 18 kts | 96° |
| 2026-05-01 15:22 | 47.45624 | 8.56064 | 1411 ft | 19 kts | 96° |
| 2026-05-01 15:22 | 47.45610 | 8.56249 | 1412 ft | 17 kts | 96° |
| 2026-05-01 15:23 | 47.45599 | 8.56414 | 1417 ft | 15 kts | 96° |
| 2026-05-01 15:23 | 47.45588 | 8.56563 | 1420 ft | 14 kts | 96° |
| 2026-05-01 15:23 | 47.45578 | 8.56709 | 1419 ft | 15 kts | 96° |
| 2026-05-01 15:23 | 47.45568 | 8.56859 | 1420 ft | 13 kts | 96° |
| 2026-05-01 15:24 | 47.45563 | 8.56966 | 1421 ft | 8 kts | 81° |
| 2026-05-01 15:24 | 47.45588 | 8.57009 | 1423 ft | 3 kts | 34° |
| 2026-05-01 15:24 | 47.45590 | 8.57012 | 1423 ft | 0 kts | 31° |
| 2026-05-01 15:24 | 47.45600 | 8.57017 | 1424 ft | 4 kts | 17° |
| 2026-05-01 15:25 | 47.45646 | 8.57004 | 1425 ft | 7 kts | 327° |
| 2026-05-01 15:25 | 47.45667 | 8.56944 | 1424 ft | 7 kts | 276° |
| 2026-05-01 15:25 | 47.45668 | 8.56930 | 1424 ft | 0 kts | 276° |
| 2026-05-01 15:26 | 47.45691 | 8.56609 | 1420 ft | 69 kts | 276° |
| 2026-05-01 15:26 | 47.45764 | 8.55582 | 1408 ft | 129 kts | 276° |
| 2026-05-01 15:26 | 47.45875 | 8.54029 | 1408 ft | 172 kts | 277° |
| 2026-05-01 15:26 | 47.45989 | 8.52255 | 1965 ft | 171 kts | 276° |
| 2026-05-01 15:27 | 47.46108 | 8.50507 | 2651 ft | 171 kts | 277° |
| 2026-05-01 15:27 | 47.45966 | 8.48689 | 2954 ft | 190 kts | 244° |
| 2026-05-01 15:27 | 47.45136 | 8.47064 | 3133 ft | 208 kts | 228° |
| 2026-05-01 15:28 | 47.43104 | 8.43389 | 3520 ft | 256 kts | 234° |
| 2026-05-01 15:28 | 47.42042 | 8.41179 | 4081 ft | 269 kts | 235° |
| 2026-05-01 15:28 | 47.40968 | 8.38895 | 4945 ft | 272 kts | 236° |
| 2026-05-01 15:29 | 47.38897 | 8.34435 | 6622 ft | 275 kts | 240° |
| 2026-05-01 15:29 | 47.38036 | 8.32060 | 7390 ft | 277 kts | 242° |
| 2026-05-01 15:29 | 47.36221 | 8.26938 | 8997 ft | 283 kts | 241° |
| 2026-05-01 15:30 | 47.34384 | 8.21750 | 10447 ft | 293 kts | 240° |
| 2026-05-01 15:31 | 47.30192 | 8.09978 | 12153 ft | 345 kts | 240° |
| 2026-05-01 15:31 | 47.27936 | 8.03633 | 13583 ft | 352 kts | 241° |
| 2026-05-01 15:32 | 47.25834 | 7.96994 | 14815 ft | 360 kts | 246° |
| 2026-05-01 15:32 | 47.24012 | 7.90437 | 15977 ft | 368 kts | 246° |
| 2026-05-01 15:33 | 47.21069 | 7.79918 | 17749 ft | 379 kts | 246° |
| 2026-05-01 15:34 | 47.17496 | 7.69725 | 19303 ft | 388 kts | 231° |